Time;durP1;ratioP1;P1;durP2;ratioP2;P2;SDS_P1;SDS_P2;PMS_P1;PMS_P2;Temp;Humidity;BMP_temperature;BMP_pressure;BME280_temperature;BME280_humidity;BME280_pressure;Samples;Min_cycle;Max_cycle;Signal;HPM_P1;HPM_P2
2022/06/12 00:01:28;;;;;;;12.33;8.83;;;;;;;20.60;63.28;100275.68;1788056;79;21066;-69
2022/06/12 00:03:55;;;;;;;11.10;9.23;;;;;;;20.59;63.63;100269.21;1791788;77;21248;-69
2022/06/12 00:06:22;;;;;;;14.27;10.20;;;;;;;20.58;63.58;100264.35;1813686;77;21073;-70
2022/06/12 00:08:49;;;;;;;12.17;9.70;;;;;;;20.58;62.95;100269.78;1798620;78;21216;-69
2022/06/12 00:11:18;;;;;;;13.73;9.80;;;;;;;20.59;62.23;100263.78;1797932;79;20991;-69
2022/06/12 00:13:58;;;;;;;12.87;9.70;;;;;;;20.60;61.66;100259.97;1819671;78;20983;-70
2022/06/12 00:16:26;;;;;;;13.47;10.30;;;;;;;20.61;61.25;100260.98;1817914;77;21604;-70
2022/06/12 00:18:53;;;;;;;12.50;9.67;;;;;;;20.63;61.02;100263.34;1814318;78;21149;-69
2022/06/12 00:21:19;;;;;;;15.28;10.53;;;;;;;20.64;60.79;100261.45;1688790;77;9999962;-70
2022/06/12 00:23:53;;;;;;;12.13;10.70;;;;;;;20.64;60.47;100266.31;1815578;78;21608;-70
2022/06/12 00:26:24;;;;;;;16.07;10.77;;;;;;;20.64;60.38;100261.45;1816307;77;21124;-69
2022/06/12 00:29:01;;;;;;;15.20;11.40;;;;;;;20.64;60.43;100260.88;1818433;77;21054;-69
2022/06/12 00:31:29;;;;;;;14.33;12.63;;;;;;;20.65;60.81;100263.03;1812631;78;21062;-70
2022/06/12 00:33:56;;;;;;;14.77;12.93;;;;;;;20.66;61.60;100264.05;1818381;77;21569;-70
2022/06/12 00:36:23;;;;;;;15.00;13.00;;;;;;;20.68;62.40;100267.23;1820511;77;21033;-70
2022/06/12 00:38:49;;;;;;;15.83;14.00;;;;;;;20.70;63.33;100267.70;1823024;77;21226;-70
2022/06/12 00:41:16;;;;;;;16.87;13.80;;;;;;;20.73;64.16;100267.04;1815737;77;21080;-70
2022/06/12 00:43:43;;;;;;;15.80;13.90;;;;;;;20.75;64.76;100270.77;1837881;77;21038;-69
2022/06/12 00:46:52;;;;;;;17.07;13.23;;;;;;;20.75;65.12;100266.70;1825657;77;21019;-70
2022/06/12 00:49:27;;;;;;;14.40;12.83;;;;;;;20.76;65.27;100263.66;1828361;77;21014;-69
2022/06/12 00:52:02;;;;;;;16.60;13.57;;;;;;;20.74;65.25;100267.83;1821871;77;21492;-69
2022/06/12 00:54:29;;;;;;;15.63;14.03;;;;;;;20.71;65.24;100276.06;1830758;77;21011;-70
2022/06/12 00:56:57;;;;;;;16.00;13.90;;;;;;;20.69;65.34;100275.59;1817919;77;21031;-69
2022/06/12 00:59:32;;;;;;;16.27;14.27;;;;;;;20.66;65.49;100268.67;1783934;79;21121;-70
2022/06/12 01:01:59;;;;;;;16.13;14.53;;;;;;;20.65;65.86;100268.45;1794736;78;21629;-70
2022/06/12 01:07:15;;;;;;;18.27;14.87;;;;;;;20.61;66.34;100273.19;1838228;77;21156;-70
2022/06/12 01:09:45;;;;;;;18.17;15.70;;;;;;;20.58;66.53;100269.78;1828818;77;21542;-69
2022/06/12 01:12:15;;;;;;;20.13;16.00;;;;;;;20.58;66.81;100266.27;1822403;77;21062;-70
2022/06/12 01:14:49;;;;;;;17.30;15.53;;;;;;;20.57;67.12;100270.13;1799454;79;21073;-69
2022/06/12 01:17:15;;;;;;;18.07;16.17;;;;;;;20.55;67.48;100263.66;1796990;78;22257;-69
2022/06/12 01:19:50;;;;;;;18.27;15.50;;;;;;;20.53;67.82;100256.96;1805866;78;21723;-69
2022/06/12 01:22:52;;;;;;;19.60;16.80;;;;;;;20.52;68.18;100264.31;1772371;79;21046;-69
2022/06/12 01:25:56;;;;;;;18.47;16.50;;;;;;;20.51;68.49;100256.52;1799966;78;21046;-69
2022/06/12 01:28:44;;;;;;;18.27;15.90;;;;;;;20.46;69.09;100253.39;1805280;78;22169;-69
2022/06/12 01:31:46;;;;;;;17.87;16.00;;;;;;;20.42;69.30;100255.19;1799172;78;21135;-69
2022/06/12 01:34:37;;;;;;;20.37;15.47;;;;;;;20.41;69.38;100267.73;1784695;78;21053;-69
2022/06/12 01:37:59;;;;;;;19.80;15.63;;;;;;;20.36;69.49;100261.36;1794484;78;21081;-69
2022/06/12 01:40:35;;;;;;;18.27;16.47;;;;;;;20.33;69.53;100260.66;1794896;78;21026;-69
2022/06/12 01:43:14;;;;;;;20.80;16.80;;;;;;;20.31;69.72;100262.92;1814311;78;21046;-69
2022/06/12 01:46:24;;;;;;;20.40;18.30;;;;;;;20.30;70.10;100261.34;1797120;78;21238;-70
2022/06/12 01:49:15;;;;;;;19.50;17.50;;;;;;;20.30;70.58;100264.06;1803203;78;21525;-69
2022/06/12 01:52:08;;;;;;;22.63;19.50;;;;;;;20.30;71.26;100261.88;1774139;78;21145;-70
2022/06/12 01:54:53;;;;;;;20.63;18.53;;;;;;;20.29;71.83;100255.67;1790699;78;21038;-69
2022/06/12 01:57:42;;;;;;;22.47;20.03;;;;;;;20.31;72.27;100260.21;1796042;78;21042;-68
2022/06/12 02:00:20;;;;;;;21.70;19.17;;;;;;;20.32;72.54;100259.08;1780309;78;21079;-69
2022/06/12 02:03:12;;;;;;;22.93;19.43;;;;;;;20.35;72.75;100261.13;1811181;78;21022;-69
2022/06/12 02:05:55;;;;;;;22.17;19.40;;;;;;;20.35;72.93;100258.42;1818544;78;21097;-70
2022/06/12 02:08:28;;;;;;;23.30;20.80;;;;;;;20.36;73.15;100260.00;1809739;78;21026;-70
2022/06/12 02:13:11;;;;;;;23.90;21.30;;;;;;;20.38;73.34;100255.05;1793823;79;21774;-69
2022/06/12 02:13:35;;;;;;;25.30;21.83;;;;;;;20.39;73.45;100254.48;1788273;79;21210;-70
2022/06/12 02:16:09;;;;;;;23.33;20.93;;;;;;;20.41;73.66;100256.31;1816102;78;21145;-68
2022/06/12 02:18:43;;;;;;;22.27;19.97;;;;;;;20.44;73.79;100254.88;1779716;79;21089;-69
2022/06/12 02:21:25;;;;;;;25.03;21.73;;;;;;;20.47;73.88;100262.35;1812887;78;21042;-69
2022/06/12 02:24:25;;;;;;;24.43;21.17;;;;;;;20.46;74.00;100256.11;1796061;78;21124;-70
2022/06/12 02:27:12;;;;;;;23.87;21.30;;;;;;;20.49;74.17;100256.80;1789220;78;21087;-68
2022/06/12 02:29:49;;;;;;;22.73;20.43;;;;;;;20.51;74.29;100255.95;1798366;78;21232;-69
2022/06/12 02:32:34;;;;;;;24.23;21.87;;;;;;;20.53;74.42;100258.32;1810881;78;21090;-69
2022/06/12 02:35:08;;;;;;;24.03;21.67;;;;;;;20.54;74.61;100255.30;1792983;78;21121;-69
2022/06/12 02:37:42;;;;;;;23.53;21.23;;;;;;;20.56;74.79;100262.52;1788820;78;21022;-69
2022/06/12 02:40:18;;;;;;;24.33;21.83;;;;;;;20.57;74.91;100258.70;1791362;78;21205;-69
2022/06/12 02:42:46;;;;;;;24.03;21.53;;;;;;;20.60;75.04;100256.69;1816851;78;21062;-70
2022/06/12 02:45:21;;;;;;;23.80;21.30;;;;;;;20.63;75.15;100253.06;1792533;78;21030;-70
2022/06/12 02:47:48;;;;;;;23.60;21.07;;;;;;;20.65;75.29;100253.53;1754037;79;21033;-69
2022/06/12 02:50:16;;;;;;;22.00;19.80;;;;;;;20.67;75.41;100249.37;1802569;78;20915;-70
2022/06/12 02:53:04;;;;;;;21.97;19.97;;;;;;;20.70;75.51;100244.63;1817500;78;21132;-70
2022/06/12 02:55:44;;;;;;;22.53;20.23;;;;;;;20.73;75.54;100253.47;1783677;78;21030;-70
2022/06/12 02:58:29;;;;;;;22.50;20.03;;;;;;;20.76;75.61;100256.88;1774139;78;21064;-71
2022/06/12 03:01:00;;;;;;;21.10;19.00;;;;;;;20.79;75.57;100251.33;1805051;78;21490;-69
2022/06/12 03:03:38;;;;;;;22.77;20.37;;;;;;;20.83;75.53;100245.48;1796582;79;20940;-70
2022/06/12 03:06:05;;;;;;;21.67;19.73;;;;;;;20.87;75.51;100255.11;1796627;79;21239;-70
2022/06/12 03:08:39;;;;;;;20.50;18.50;;;;;;;20.92;75.38;100252.17;1794537;79;21148;-70
2022/06/12 03:11:24;;;;;;;21.63;19.60;;;;;;;20.97;75.32;100255.48;1796736;79;20948;-70
2022/06/12 03:13:52;;;;;;;21.60;19.43;;;;;;;21.02;75.24;100252.54;1774509;79;21062;-69
2022/06/12 03:16:31;;;;;;;19.63;17.63;;;;;;;21.08;75.08;100254.49;1795902;79;21074;-69
2022/06/12 03:19:08;;;;;;;19.27;17.40;;;;;;;21.14;74.92;100257.23;1796605;79;21812;-69
2022/06/12 03:22:05;;;;;;;20.23;18.07;;;;;;;21.19;74.75;100257.03;1794364;79;21204;-69
2022/06/12 03:24:59;;;;;;;19.83;17.87;;;;;;;21.25;74.47;100254.88;1795610;79;21014;-69
2022/06/12 03:28:04;;;;;;;18.57;16.67;;;;;;;21.31;74.19;100257.61;1796889;79;20986;-69
2022/06/12 03:30:40;;;;;;;18.83;16.97;;;;;;;21.37;74.01;100256.87;1796589;79;21051;-69
2022/06/12 03:33:45;;;;;;;18.13;16.53;;;;;;;21.42;73.45;100256.63;1794300;78;21246;-69
2022/06/12 03:36:32;;;;;;;18.60;16.93;;;;;;;21.46;73.20;100256.20;1797020;79;21102;-69
2022/06/12 03:39:19;;;;;;;18.50;16.47;;;;;;;21.52;72.87;100252.14;1795037;78;21101;-69
2022/06/12 03:42:18;;;;;;;18.47;16.73;;;;;;;21.58;72.59;100258.92;1779162;79;20995;-72
2022/06/12 03:45:14;;;;;;;19.07;17.17;;;;;;;21.63;72.20;100253.84;1796289;79;21023;-70
2022/06/12 03:47:49;;;;;;;17.07;15.37;;;;;;;21.69;72.12;100243.77;1765539;79;21079;-69
2022/06/12 03:50:42;;;;;;;18.07;16.23;;;;;;;21.75;71.91;100249.75;1794819;79;21085;-69
2022/06/12 03:53:18;;;;;;;17.30;15.80;;;;;;;21.81;71.71;100256.56;1787838;79;20995;-69
2022/06/12 03:58:57;;;;;;;17.90;16.27;;;;;;;21.93;71.08;100249.77;1793524;78;21014;-69
2022/06/12 04:01:24;;;;;;;17.87;16.27;;;;;;;22.01;70.79;100258.93;1794412;79;21740;-69
2022/06/12 04:03:51;;;;;;;17.87;16.27;;;;;;;22.08;70.30;100260.53;1795014;79;21538;-69
2022/06/12 04:06:22;;;;;;;18.83;17.03;;;;;;;22.15;69.95;100258.59;1796181;79;21576;-69
2022/06/12 04:08:56;;;;;;;20.37;18.33;;;;;;;22.21;69.69;100258.59;1793921;79;21137;-69
2022/06/12 04:11:26;;;;;;;19.00;17.17;;;;;;;22.28;69.14;100251.22;1792399;79;21074;-70
2022/06/12 04:13:52;;;;;;;19.20;17.43;;;;;;;22.33;68.81;100253.14;1795030;79;21096;-70
2022/06/12 04:16:40;;;;;;;21.00;16.87;;;;;;;22.40;68.59;100256.64;1794827;79;21105;-70
2022/06/12 04:19:12;;;;;;;17.23;15.53;;;;;;;22.49;68.04;100264.11;1780598;79;20971;-68
2022/06/12 04:22:05;;;;;;;18.80;17.10;;;;;;;22.53;67.10;100254.11;1792946;79;20954;-70
2022/06/12 04:24:43;;;;;;;18.03;16.30;;;;;;;22.56;66.72;100262.95;1795148;79;21002;-70
2022/06/12 04:27:27;;;;;;;17.27;15.60;;;;;;;22.61;66.60;100262.72;1794816;79;21172;-67
2022/06/12 04:30:00;;;;;;;18.00;16.40;;;;;;;22.68;66.14;100265.64;1793962;79;21094;-69
2022/06/12 04:32:28;;;;;;;17.57;15.97;;;;;;;22.76;65.59;100259.82;1793288;79;21573;-69
2022/06/12 04:34:54;;;;;;;18.00;16.30;;;;;;;22.84;65.25;100267.64;1793664;79;20996;-69
2022/06/12 04:37:26;;;;;;;17.03;15.17;;;;;;;22.92;65.12;100266.69;1794811;79;21061;-69
2022/06/12 04:39:53;;;;;;;;;;;;;;;23.01;65.00;100266.58;1797984;79;21524;-70
2022/06/12 04:42:22;;;;;;;16.50;15.00;;;;;;;23.10;64.42;100263.92;1796743;79;20277;-69
2022/06/12 04:44:49;;;;;;;17.47;15.87;;;;;;;23.17;63.88;100266.03;1795396;78;20999;-69
2022/06/12 04:47:19;;;;;;;16.87;15.27;;;;;;;23.23;63.62;100278.81;1794674;78;21026;-70
2022/06/12 04:49:46;;;;;;;17.23;15.48;;;;;;;23.29;63.31;100266.52;1789553;79;21022;-69
2022/06/12 04:52:13;;;;;;;16.80;15.20;;;;;;;23.35;62.84;100273.30;1796322;79;22119;-69
2022/06/12 04:54:41;;;;;;;16.67;15.17;;;;;;;23.43;62.76;100272.36;1797284;79;21514;-69
2022/06/12 04:57:08;;;;;;;16.53;15.07;;;;;;;23.51;62.26;100271.38;1796595;78;21070;-70
2022/06/12 04:59:35;;;;;;;15.77;14.27;;;;;;;23.58;61.80;100274.86;1793392;79;21546;-70
2022/06/12 05:02:02;;;;;;;15.97;14.57;;;;;;;23.64;61.20;100272.88;1789832;79;21485;-70
2022/06/12 05:04:29;;;;;;;16.00;14.60;;;;;;;23.68;60.56;100273.54;1793922;79;22993;-69
2022/06/12 05:06:56;;;;;;;17.37;15.70;;;;;;;23.72;60.66;100270.35;1790074;79;21565;-70
2022/06/12 05:09:27;;;;;;;17.17;15.53;;;;;;;23.80;61.13;100274.85;1791074;79;21530;-70
2022/06/12 05:11:54;;;;;;;16.77;15.17;;;;;;;23.88;61.09;100277.37;1786216;79;20966;-69
2022/06/12 05:14:21;;;;;;;16.77;15.07;;;;;;;23.96;60.81;100278.35;1765108;79;21033;-69
2022/06/12 05:16:58;;;;;;;16.57;15.07;;;;;;;24.03;60.36;100274.42;1774617;79;21065;-70
2022/06/12 05:19:30;;;;;;;16.53;14.97;;;;;;;24.09;60.14;100273.59;1779607;79;21505;-69
2022/06/12 05:21:56;;;;;;;17.23;15.50;;;;;;;24.15;60.24;100275.45;1784801;79;20989;-70
2022/06/12 05:24:23;;;;;;;16.53;15.00;;;;;;;24.16;59.90;100282.51;1780119;79;21003;-69
2022/06/12 05:26:50;;;;;;;17.17;15.47;;;;;;;24.17;59.84;100279.98;1780911;79;20999;-68
2022/06/12 05:29:31;;;;;;;16.87;15.30;;;;;;;24.21;59.57;100283.00;1781934;79;21112;-69
2022/06/12 05:31:59;;;;;;;17.00;15.28;;;;;;;24.26;58.98;100290.14;1793068;79;20939;-69
2022/06/12 05:34:26;;;;;;;16.13;14.63;;;;;;;24.28;58.35;100280.45;1794697;79;21043;-70
2022/06/12 05:36:53;;;;;;;16.07;14.57;;;;;;;24.31;57.88;100281.66;1794256;79;20999;-71
2022/06/12 05:39:20;;;;;;;16.20;14.70;;;;;;;24.33;57.52;100276.64;1794976;78;21415;-70
2022/06/12 05:41:48;;;;;;;16.23;14.60;;;;;;;24.36;57.57;100277.30;1792804;79;21160;-70
2022/06/12 05:44:15;;;;;;;15.77;14.10;;;;;;;24.43;57.37;100280.20;1762227;81;21046;-70
2022/06/12 05:46:42;;;;;;;15.77;14.27;;;;;;;24.50;56.84;100278.20;1762423;81;21133;-69
2022/06/12 05:49:09;;;;;;;14.17;12.93;;;;;;;24.57;56.89;100282.45;1781479;79;20979;-70
2022/06/12 05:51:36;;;;;;;14.53;13.23;;;;;;;24.65;56.29;100276.00;1796950;79;20986;-71
2022/06/12 05:54:04;;;;;;;14.53;13.13;;;;;;;24.72;56.40;100277.50;1780452;79;21783;-69
2022/06/12 05:56:32;;;;;;;14.27;12.87;;;;;;;24.82;56.31;100282.97;1765533;81;20993;-69
2022/06/12 05:58:59;;;;;;;14.37;13.07;;;;;;;24.92;56.33;100276.14;1783930;79;21005;-70
2022/06/12 06:01:26;;;;;;;14.40;13.03;;;;;;;25.01;56.03;100277.50;1779034;79;20983;-70
2022/06/12 06:03:53;;;;;;;15.50;13.90;;;;;;;25.13;56.09;100279.88;1762766;81;21644;-70
2022/06/12 06:06:30;;;;;;;15.57;14.17;;;;;;;25.23;55.61;100282.01;1766679;78;21026;-69
2022/06/12 06:08:58;;;;;;;15.50;14.10;;;;;;;25.29;55.35;100281.92;1788270;79;21543;-69
2022/06/12 06:11:25;;;;;;;16.40;14.93;;;;;;;25.35;55.74;100282.42;1793416;79;21000;-69
2022/06/12 06:13:52;;;;;;;14.00;12.70;;;;;;;25.41;55.47;100284.49;1797194;79;21550;-70
2022/06/12 06:16:19;;;;;;;16.00;14.33;;;;;;;25.50;55.20;100284.23;1789975;78;21062;-68
2022/06/12 06:18:46;;;;;;;15.33;13.93;;;;;;;25.54;55.02;100277.48;1791534;78;21552;-70
2022/06/12 06:21:14;;;;;;;14.37;12.97;;;;;;;25.62;55.07;100284.06;1774030;79;21038;-73
2022/06/12 06:23:42;;;;;;;15.07;13.67;;;;;;;25.69;54.82;100273.81;1793807;79;21094;-72
2022/06/12 06:26:10;;;;;;;15.00;13.60;;;;;;;25.81;54.73;100276.97;1793470;79;20999;-73
2022/06/12 06:28:37;;;;;;;14.43;13.00;;;;;;;25.91;54.54;100281.82;1766324;79;21108;-73
2022/06/12 06:31:06;;;;;;;13.53;12.23;;;;;;;26.02;54.36;100276.50;1794585;79;21250;-72
2022/06/12 06:33:33;;;;;;;13.33;12.03;;;;;;;26.10;53.73;100278.20;1765608;80;21004;-72
2022/06/12 06:36:00;;;;;;;14.03;12.80;;;;;;;26.17;53.48;100278.30;1780700;79;20982;-72
2022/06/12 06:38:27;;;;;;;14.10;12.70;;;;;;;26.23;53.38;100275.45;1794613;79;20983;-72
2022/06/12 06:40:53;;;;;;;13.87;12.53;;;;;;;26.29;53.38;100273.98;1796571;78;21501;-72
2022/06/12 06:43:20;;;;;;;14.10;12.70;;;;;;;26.35;52.92;100275.21;1797070;79;21283;-72
2022/06/12 06:48:32;;;;;;;15.43;14.00;;;;;;;26.49;52.59;100269.74;1792556;78;20996;-73
2022/06/12 06:51:00;;;;;;;14.83;13.33;;;;;;;26.57;51.88;100268.69;1792087;79;21081;-73
2022/06/12 06:53:27;;;;;;;14.50;13.07;;;;;;;26.58;52.17;100270.25;1795089;79;21537;-72
2022/06/12 06:55:53;;;;;;;14.43;13.00;;;;;;;26.60;52.36;100270.69;1792175;79;21242;-73
2022/06/12 06:58:24;;;;;;;14.03;12.67;;;;;;;26.62;52.33;100269.71;1794653;78;21085;-73
2022/06/12 07:00:51;;;;;;;13.50;12.30;;;;;;;26.68;51.97;100268.23;1796051;79;21541;-72
2022/06/12 07:03:17;;;;;;;13.87;12.50;;;;;;;26.71;51.80;100269.44;1795101;79;21081;-73
2022/06/12 07:05:44;;;;;;;13.60;12.33;;;;;;;26.78;51.33;100268.92;1794234;79;21007;-72
2022/06/12 07:08:13;;;;;;;14.73;12.47;;;;;;;26.83;51.40;100272.72;1797243;79;21172;-74
2022/06/12 07:10:40;;;;;;;13.10;11.90;;;;;;;26.89;51.33;100271.23;1768510;79;21050;-74
2022/06/12 07:13:06;;;;;;;14.40;13.10;;;;;;;26.97;50.42;100269.34;1795044;79;20932;-73
2022/06/12 07:15:33;;;;;;;13.23;12.13;;;;;;;27.02;49.86;100268.23;1794005;78;21093;-72
2022/06/12 07:18:03;;;;;;;13.47;12.27;;;;;;;27.02;49.94;100267.65;1794840;79;21073;-72
2022/06/12 07:20:32;;;;;;;13.30;12.10;;;;;;;27.06;49.30;100274.53;1791540;79;21283;-71
2022/06/12 07:22:59;;;;;;;13.17;11.83;;;;;;;27.08;49.22;100277.12;1794652;79;21145;-71
2022/06/12 07:25:25;;;;;;;13.10;11.83;;;;;;;27.15;49.10;100272.31;1795324;78;21574;-73
2022/06/12 07:27:52;;;;;;;13.40;12.07;;;;;;;27.25;48.53;100269.48;1795088;79;21033;-71
2022/06/12 07:30:20;;;;;;;14.77;12.33;;;;;;;27.34;48.43;100265.82;1794843;79;20982;-72
2022/06/12 07:32:47;;;;;;;12.60;11.50;;;;;;;27.40;48.62;100262.16;1790310;79;21188;-73
2022/06/12 07:35:14;;;;;;;12.17;11.07;;;;;;;27.48;48.25;100263.81;1795152;79;20987;-72
2022/06/12 07:37:41;;;;;;;12.47;11.20;;;;;;;27.55;48.20;100261.13;1795367;79;21132;-72
2022/06/12 07:40:13;;;;;;;12.40;11.20;;;;;;;27.65;48.50;100263.16;1794499;79;21038;-72
2022/06/12 07:42:39;;;;;;;;;;;;;;;27.79;47.48;100257.02;1796264;78;21085;-73
2022/06/12 07:45:06;;;;;;;12.30;11.20;;;;;;;27.90;46.44;100257.09;1796783;79;21796;-72
2022/06/12 07:47:33;;;;;;;11.80;10.80;;;;;;;27.97;45.87;100258.50;1795048;79;21097;-72
2022/06/12 07:50:00;;;;;;;12.10;11.00;;;;;;;28.02;46.04;100258.16;1795012;79;21011;-72
2022/06/12 07:52:27;;;;;;;12.37;11.17;;;;;;;28.11;46.67;100250.96;1791579;79;20975;-71
2022/06/12 07:54:55;;;;;;;12.53;11.43;;;;;;;28.21;46.56;100252.98;1794766;79;21509;-71
2022/06/12 07:57:23;;;;;;;11.43;10.33;;;;;;;28.26;45.56;100253.97;1793941;79;21988;-71
2022/06/12 07:59:49;;;;;;;12.83;10.97;;;;;;;28.29;45.37;100254.58;1795234;79;21769;-72
2022/06/12 08:02:16;;;;;;;11.27;10.27;;;;;;;28.32;45.04;100260.67;1795437;79;21050;-71
2022/06/12 08:04:43;;;;;;;13.70;10.97;;;;;;;28.39;44.75;100257.17;1796987;79;20999;-72
2022/06/12 08:07:10;;;;;;;10.90;10.00;;;;;;;28.45;44.89;100257.82;1796685;79;21280;-72
2022/06/12 08:09:37;;;;;;;10.97;9.87;;;;;;;28.56;45.18;100255.11;1795281;78;21812;-71
2022/06/12 08:12:05;;;;;;;11.77;10.50;;;;;;;28.65;44.84;100259.67;1795030;79;20998;-70
2022/06/12 08:14:33;;;;;;;10.77;9.70;;;;;;;28.72;44.07;100261.06;1792289;79;21062;-72
2022/06/12 08:17:00;;;;;;;10.07;9.17;;;;;;;28.75;43.81;100258.91;1795279;79;21039;-71
2022/06/12 08:22:07;;;;;;;9.87;8.83;;;;;;;28.94;44.06;100256.42;1751735;79;21085;-72
2022/06/12 08:24:35;;;;;;;9.30;8.43;;;;;;;29.03;43.05;100265.72;1794861;79;21049;-72
2022/06/12 08:27:02;;;;;;;9.23;8.33;;;;;;;29.09;42.94;100260.59;1795155;78;21172;-72
2022/06/12 08:29:28;;;;;;;9.33;8.07;;;;;;;29.18;42.62;100251.38;1795297;78;21007;-72
2022/06/12 08:32:13;;;;;;;8.33;6.93;;;;;;;29.24;42.09;100257.30;1794774;79;21034;-72
2022/06/12 08:34:45;;;;;;;9.90;7.70;;;;;;;29.26;42.18;100246.70;1794017;79;22164;-72
2022/06/12 08:37:17;;;;;;;9.77;7.70;;;;;;;29.33;42.26;100252.98;1794605;78;21057;-74
2022/06/12 08:39:43;;;;;;;8.93;7.47;;;;;;;29.41;42.19;100260.64;1792052;79;21604;-73
2022/06/12 08:42:16;;;;;;;8.50;7.07;;;;;;;29.46;41.89;100254.77;1795504;79;21014;-73
2022/06/12 08:44:57;;;;;;;8.67;7.07;;;;;;;29.51;41.31;100270.86;1793224;79;21087;-73
2022/06/12 08:47:35;;;;;;;8.65;7.08;;;;;;;29.54;40.90;100256.31;1764524;79;21153;-74
2022/06/12 08:50:13;;;;;;;10.13;7.07;;;;;;;29.58;41.19;100259.88;1797449;79;21038;-73
2022/06/12 08:52:54;;;;;;;10.17;7.40;;;;;;;29.62;41.05;100251.05;1796610;79;21418;-72
2022/06/12 08:55:27;;;;;;;9.50;6.93;;;;;;;29.70;40.55;100249.67;1791483;78;21038;-73
2022/06/12 08:58:15;;;;;;;7.93;6.27;;;;;;;29.73;40.32;100250.26;1790555;79;21648;-73
2022/06/12 09:00:43;;;;;;;8.37;7.00;;;;;;;29.76;40.71;100249.47;1781862;80;21565;-72
2022/06/12 09:03:18;;;;;;;7.33;6.00;;;;;;;29.87;40.12;100246.87;1783282;78;21082;-72
2022/06/12 09:05:52;;;;;;;7.57;6.73;;;;;;;30.00;39.49;100241.74;1796074;79;21015;-73
2022/06/12 09:08:33;;;;;;;7.70;6.90;;;;;;;30.09;39.26;100250.38;1797228;79;21003;-74
2022/06/12 09:11:18;;;;;;;7.03;6.27;;;;;;;30.20;39.46;100240.73;1796857;79;21022;-72
2022/06/12 09:14:10;;;;;;;7.17;6.57;;;;;;;30.32;38.90;100238.93;1780778;79;20940;-74
2022/06/12 09:17:11;;;;;;;7.30;6.17;;;;;;;30.40;38.31;100256.81;1752675;79;21073;-74
2022/06/12 09:19:58;;;;;;;7.47;6.75;;;;;;;30.41;38.58;100247.37;1765403;80;24719;-73
2022/06/12 09:23:10;;;;;;;7.10;6.40;;;;;;;30.43;37.84;100243.02;1748026;81;21073;-73
2022/06/12 09:25:59;;;;;;;;;;;;;;;30.43;37.86;100243.61;1768886;81;21001;-72
2022/06/12 09:28:52;;;;;;;7.20;6.37;;;;;;;30.48;37.88;100240.45;1792134;79;21539;-72
2022/06/12 09:31:37;;;;;;;8.97;6.67;;;;;;;30.48;37.64;100237.10;1795072;78;20944;-72
2022/06/12 09:34:57;;;;;;;6.30;5.70;;;;;;;30.46;37.23;100241.44;1800030;79;21125;-73
2022/06/12 09:40:44;;;;;;;8.63;5.77;;;;;;;30.52;36.76;100239.24;1819695;77;20996;-73
2022/06/12 09:43:31;;;;;;;6.80;5.77;;;;;;;30.54;37.59;100226.45;1820704;77;21251;-72
2022/06/12 09:46:15;;;;;;;7.20;5.10;;;;;;;30.60;37.43;100226.20;1797671;79;22472;-74
2022/06/12 09:49:18;;;;;;;5.53;5.03;;;;;;;30.69;37.28;100232.66;1799485;78;21071;-72
2022/06/12 09:52:30;;;;;;;6.00;5.43;;;;;;;30.76;37.36;100222.97;1798910;79;21038;-72
2022/06/12 09:55:16;;;;;;;6.28;5.42;;;;;;;30.80;36.45;100222.38;1781936;79;21097;-73
2022/06/12 09:57:51;;;;;;;7.73;5.30;;;;;;;30.82;35.95;100221.39;1816080;77;21521;-72
2022/06/12 10:00:23;;;;;;;6.63;5.20;;;;;;;30.82;36.17;100220.02;1786372;79;21178;-73
2022/06/12 10:03:09;;;;;;;7.13;4.93;;;;;;;30.83;35.98;100222.95;1799896;79;21057;-73
2022/06/12 10:05:44;;;;;;;6.10;5.17;;;;;;;30.80;35.62;100223.76;1798655;79;21078;-73
2022/06/12 10:08:22;;;;;;;7.80;5.67;;;;;;;30.81;35.84;100215.70;1797926;78;21002;-72
2022/06/12 10:11:09;;;;;;;6.57;5.77;;;;;;;30.88;35.41;100224.52;1785385;79;21999;-73
2022/06/12 10:13:53;;;;;;;7.70;7.00;;;;;;;30.89;35.96;100213.67;1796895;79;21407;-73
2022/06/12 10:16:31;;;;;;;7.90;7.20;;;;;;;30.87;38.84;100218.22;1796158;79;20965;-73
2022/06/12 10:19:12;;;;;;;8.57;7.77;;;;;;;30.83;39.20;100217.44;1798945;79;20971;-72
2022/06/12 10:21:43;;;;;;;8.67;7.50;;;;;;;30.86;39.43;100215.25;1786056;80;21050;-73
2022/06/12 10:24:11;;;;;;;8.17;7.47;;;;;;;30.91;40.02;100207.95;1818850;77;21095;-72
2022/06/12 10:26:38;;;;;;;10.10;7.73;;;;;;;30.99;39.98;100212.81;1767446;79;21125;-72
2022/06/12 10:29:13;;;;;;;8.40;7.60;;;;;;;30.98;40.12;100212.63;1745093;79;21022;-72
2022/06/12 10:31:49;;;;;;;7.67;6.93;;;;;;;30.96;39.67;100208.88;1783112;79;21052;-72
2022/06/12 10:34:22;;;;;;;8.03;7.23;;;;;;;30.99;40.31;100216.95;1794416;79;21013;-73
2022/06/12 10:36:48;;;;;;;8.73;7.37;;;;;;;30.96;39.78;100204.75;1798765;78;21430;-73
2022/06/12 10:39:21;;;;;;;8.70;6.97;;;;;;;30.94;39.26;100210.50;1799666;79;20991;-73
2022/06/12 10:42:01;;;;;;;8.43;6.80;;;;;;;30.91;38.95;100216.22;1784571;79;21003;-72
2022/06/12 10:44:41;;;;;;;7.40;6.70;;;;;;;30.83;39.26;100205.03;1816600;78;21038;-71
2022/06/12 10:47:31;;;;;;;7.47;6.13;;;;;;;30.83;39.62;100209.98;1797793;79;21041;-72
2022/06/12 10:50:28;;;;;;;8.65;5.97;;;;;;;30.86;38.72;100206.98;1798309;79;21147;-72
2022/06/12 10:53:12;;;;;;;6.97;6.23;;;;;;;30.83;38.93;100200.33;1799000;78;21082;-71
2022/06/12 10:56:14;;;;;;;7.07;6.37;;;;;;;30.83;38.40;100216.06;1798274;78;21037;-72
2022/06/12 10:59:15;;;;;;;8.37;5.87;;;;;;;30.77;38.30;100212.19;1817534;77;21526;-72
2022/06/12 11:02:23;;;;;;;7.30;5.00;;;;;;;30.71;38.46;100207.65;1809765;77;21032;-72
2022/06/12 11:05:34;;;;;;;6.63;5.40;;;;;;;30.68;38.11;100209.83;1817099;78;21235;-73
2022/06/12 11:08:25;;;;;;;6.73;5.13;;;;;;;30.66;37.55;100203.14;1819904;78;21022;-71
2022/06/12 11:11:21;;;;;;;6.43;5.60;;;;;;;30.70;37.29;100201.95;1817936;78;21033;-72
2022/06/12 11:14:14;;;;;;;5.97;5.37;;;;;;;30.79;37.18;100198.77;1817907;78;21050;-72
2022/06/12 11:16:51;;;;;;;11.03;5.30;;;;;;;30.84;36.77;100205.24;1816543;78;21556;-72
2022/06/12 11:19:50;;;;;;;6.27;4.37;;;;;;;30.89;36.72;100204.02;1818790;78;21161;-75
2022/06/12 11:22:46;;;;;;;6.80;4.40;;;;;;;30.90;35.34;100204.20;1762791;78;21141;-71
2022/06/12 11:25:20;;;;;;;6.87;4.90;;;;;;;30.90;35.48;100185.70;1820075;78;21086;-74
2022/06/12 11:28:12;;;;;;;6.20;4.30;;;;;;;30.98;35.68;100196.86;1819163;78;21580;-74
2022/06/12 11:30:56;;;;;;;7.00;4.70;;;;;;;31.05;34.19;100195.42;1775701;78;21318;-72
2022/06/12 11:33:44;;;;;;;5.83;5.17;;;;;;;30.94;34.85;100183.70;1815383;78;21259;-73
2022/06/12 11:36:38;;;;;;;5.97;4.87;;;;;;;30.86;34.58;100175.27;1818887;78;21474;-73
2022/06/12 11:39:44;;;;;;;6.27;4.50;;;;;;;30.86;34.95;100173.89;1818603;78;21023;-73
2022/06/12 11:42:32;;;;;;;5.57;4.70;;;;;;;30.89;35.02;100178.60;1819994;78;21415;-72
2022/06/12 11:45:10;;;;;;;5.50;4.20;;;;;;;30.99;34.85;100167.30;1817926;78;21045;-72
2022/06/12 11:47:48;;;;;;;5.17;4.10;;;;;;;31.12;34.39;100159.33;1817590;78;40051;-72
2022/06/12 11:50:34;;;;;;;4.93;3.90;;;;;;;31.25;33.72;100172.81;1799685;78;21541;-72
2022/06/12 11:53:14;;;;;;;7.33;3.50;;;;;;;31.33;32.82;100159.19;1799634;79;21088;-73
2022/06/12 11:55:59;;;;;;;5.13;3.70;;;;;;;31.31;31.78;100154.03;1796982;78;21420;-72
2022/06/12 11:58:55;;;;;;;5.60;3.90;;;;;;;31.31;31.60;100155.41;1785737;80;21058;-73
2022/06/12 12:01:27;;;;;;;4.27;3.70;;;;;;;31.31;31.16;100150.48;1798881;79;21764;-72
2022/06/12 12:04:21;;;;;;;7.03;4.07;;;;;;;31.35;31.34;100154.63;1799134;78;21517;-72
2022/06/12 12:07:14;;;;;;;5.47;3.80;;;;;;;31.39;31.33;100149.27;1793101;79;21077;-71
2022/06/12 12:10:05;;;;;;;4.97;3.93;;;;;;;31.43;31.41;100147.25;1795083;78;20963;-73
2022/06/12 12:12:41;;;;;;;5.80;3.90;;;;;;;31.47;30.81;100149.37;1797887;79;21106;-72